sensor_id;sensor_type;location;lat;lon;timestamp;pressure;altitude;pressure_sealevel;temperature;humidity
3968;BME280;9221;42.646;23.380;2023-03-18T00:02:17;94905.59;;;2.39;83.34
3968;BME280;9221;42.646;23.380;2023-03-18T00:04:43;94922.31;;;2.34;83.65
3968;BME280;9221;42.646;23.380;2023-03-18T00:07:09;94903.25;;;2.19;83.85
3968;BME280;9221;42.646;23.380;2023-03-18T00:09:35;94871.25;;;1.89;83.66
3968;BME280;9221;42.646;23.380;2023-03-18T00:12:00;94913.00;;;2.01;83.81
3968;BME280;9221;42.646;23.380;2023-03-18T00:14:25;94847.13;;;1.42;84.18
3968;BME280;9221;42.646;23.380;2023-03-18T00:16:52;94934.63;;;1.88;85.08
3968;BME280;9221;42.646;23.380;2023-03-18T00:19:17;94948.16;;;1.93;84.78
3968;BME280;9221;42.646;23.380;2023-03-18T00:21:44;94909.47;;;2.02;84.63
3968;BME280;9221;42.646;23.380;2023-03-18T00:24:09;94953.22;;;2.10;83.75
3968;BME280;9221;42.646;23.380;2023-03-18T00:26:36;94845.16;;;1.76;82.92
3968;BME280;9221;42.646;23.380;2023-03-18T00:29:03;94835.25;;;1.82;81.28
3968;BME280;9221;42.646;23.380;2023-03-18T00:31:28;94847.59;;;1.93;81.09
3968;BME280;9221;42.646;23.380;2023-03-18T00:33:54;94939.25;;;2.27;80.75
3968;BME280;9221;42.646;23.380;2023-03-18T00:36:19;94858.09;;;2.06;80.41
3968;BME280;9221;42.646;23.380;2023-03-18T00:38:51;94822.72;;;1.89;79.82
3968;BME280;9221;42.646;23.380;2023-03-18T00:41:25;94808.56;;;1.79;79.73
3968;BME280;9221;42.646;23.380;2023-03-18T00:43:51;94827.72;;;1.78;80.15
3968;BME280;9221;42.646;23.380;2023-03-18T00:46:36;94868.16;;;2.12;80.51
3968;BME280;9221;42.646;23.380;2023-03-18T00:49:05;94813.03;;;1.77;80.48
3968;BME280;9221;42.646;23.380;2023-03-18T00:51:33;94859.50;;;1.97;79.40
3968;BME280;9221;42.646;23.380;2023-03-18T00:54:01;94797.16;;;1.22;79.90
3968;BME280;9221;42.646;23.380;2023-03-18T00:56:30;94838.03;;;1.49;80.27
3968;BME280;9221;42.646;23.380;2023-03-18T00:58:56;94893.00;;;1.57;81.55
3968;BME280;9221;42.646;23.380;2023-03-18T01:01:23;94830.94;;;1.22;82.10
3968;BME280;9221;42.646;23.380;2023-03-18T01:03:49;94784.59;;;0.84;82.54
3968;BME280;9221;42.646;23.380;2023-03-18T01:06:18;94800.53;;;0.46;83.31
3968;BME280;9221;42.646;23.380;2023-03-18T01:08:44;94852.03;;;0.54;84.09
3968;BME280;9221;42.646;23.380;2023-03-18T01:11:10;94783.97;;;0.64;84.01
3968;BME280;9221;42.646;23.380;2023-03-18T01:13:36;94822.63;;;0.85;84.26
3968;BME280;9221;42.646;23.380;2023-03-18T01:16:03;94720.41;;;0.25;84.05
3968;BME280;9221;42.646;23.380;2023-03-18T01:18:29;94702.81;;;0.14;84.10
3968;BME280;9221;42.646;23.380;2023-03-18T01:20:55;94828.63;;;1.01;83.78
3968;BME280;9221;42.646;23.380;2023-03-18T01:23:21;94828.97;;;0.95;83.85
3968;BME280;9221;42.646;23.380;2023-03-18T01:25:46;94825.34;;;0.98;83.21
3968;BME280;9221;42.646;23.380;2023-03-18T01:28:13;94770.22;;;0.62;83.33
3968;BME280;9221;42.646;23.380;2023-03-18T01:30:39;94770.72;;;0.69;82.55
3968;BME280;9221;42.646;23.380;2023-03-18T01:33:05;94779.41;;;0.84;82.55
3968;BME280;9221;42.646;23.380;2023-03-18T01:35:35;94785.91;;;0.91;82.19
3968;BME280;9221;42.646;23.380;2023-03-18T01:38:02;94772.41;;;1.00;81.72
3968;BME280;9221;42.646;23.380;2023-03-18T01:40:31;94752.22;;;1.06;81.16
3968;BME280;9221;42.646;23.380;2023-03-18T01:43:19;94835.66;;;1.60;80.29
3968;BME280;9221;42.646;23.380;2023-03-18T01:45:53;94768.38;;;1.11;79.95
3968;BME280;9221;42.646;23.380;2023-03-18T01:48:21;94768.78;;;1.19;80.74
3968;BME280;9221;42.646;23.380;2023-03-18T01:50:51;94766.91;;;1.21;80.48
3968;BME280;9221;42.646;23.380;2023-03-18T01:53:19;94760.69;;;1.24;80.02
3968;BME280;9221;42.646;23.380;2023-03-18T01:55:47;94812.28;;;1.60;79.63
3968;BME280;9221;42.646;23.380;2023-03-18T02:00:48;94773.81;;;1.06;80.85
3968;BME280;9221;42.646;23.380;2023-03-18T02:03:16;94778.41;;;0.71;81.93
3968;BME280;9221;42.646;23.380;2023-03-18T02:05:43;94745.47;;;0.41;83.28
3968;BME280;9221;42.646;23.380;2023-03-18T02:08:09;94810.19;;;0.90;83.55
3968;BME280;9221;42.646;23.380;2023-03-18T02:10:35;94850.31;;;1.00;83.22
3968;BME280;9221;42.646;23.380;2023-03-18T02:13:08;94818.06;;;1.05;83.21
3968;BME280;9221;42.646;23.380;2023-03-18T02:15:37;94812.72;;;0.92;83.23
3968;BME280;9221;42.646;23.380;2023-03-18T02:18:11;94802.81;;;0.98;83.12
3968;BME280;9221;42.646;23.380;2023-03-18T02:20:47;94822.75;;;1.14;83.17
3968;BME280;9221;42.646;23.380;2023-03-18T02:23:35;94814.38;;;1.09;82.74
3968;BME280;9221;42.646;23.380;2023-03-18T02:26:19;94748.41;;;0.35;83.69
3968;BME280;9221;42.646;23.380;2023-03-18T02:28:48;94806.72;;;0.59;84.32
3968;BME280;9221;42.646;23.380;2023-03-18T02:31:15;94823.81;;;0.63;84.63
3968;BME280;9221;42.646;23.380;2023-03-18T02:33:42;94757.88;;;0.20;84.29
3968;BME280;9221;42.646;23.380;2023-03-18T02:36:12;94815.53;;;0.73;84.92
3968;BME280;9221;42.646;23.380;2023-03-18T02:38:42;94813.25;;;0.66;84.16
3968;BME280;9221;42.646;23.380;2023-03-18T02:41:22;94757.69;;;0.07;84.95
3968;BME280;9221;42.646;23.380;2023-03-18T02:43:50;94718.53;;;-0.21;84.84
3968;BME280;9221;42.646;23.380;2023-03-18T02:48:59;94750.31;;;0.15;85.31
3968;BME280;9221;42.646;23.380;2023-03-18T02:51:26;94757.38;;;0.13;85.67
3968;BME280;9221;42.646;23.380;2023-03-18T02:53:56;94816.44;;;0.40;86.55
3968;BME280;9221;42.646;23.380;2023-03-18T02:56:22;94746.47;;;-0.10;85.97
3968;BME280;9221;42.646;23.380;2023-03-18T02:58:49;94833.09;;;0.36;86.45
3968;BME280;9221;42.646;23.380;2023-03-18T03:01:14;94811.59;;;0.33;86.49
3968;BME280;9221;42.646;23.380;2023-03-18T03:03:40;94813.09;;;0.38;86.51
3968;BME280;9221;42.646;23.380;2023-03-18T03:06:06;94721.84;;;-0.35;86.86
3968;BME280;9221;42.646;23.380;2023-03-18T03:08:33;94872.31;;;0.29;87.17
3968;BME280;9221;42.646;23.380;2023-03-18T03:10:59;94762.22;;;0.03;87.45
3968;BME280;9221;42.646;23.380;2023-03-18T03:13:24;94787.81;;;0.25;86.49
3968;BME280;9221;42.646;23.380;2023-03-18T03:15:50;94738.88;;;-0.13;86.81
3968;BME280;9221;42.646;23.380;2023-03-18T03:18:16;94822.78;;;0.34;87.53
3968;BME280;9221;42.646;23.380;2023-03-18T03:20:42;94860.09;;;0.31;86.77
3968;BME280;9221;42.646;23.380;2023-03-18T03:23:10;94823.53;;;0.20;87.97
3968;BME280;9221;42.646;23.380;2023-03-18T03:25:37;94765.84;;;-0.17;88.15
3968;BME280;9221;42.646;23.380;2023-03-18T03:28:04;94756.56;;;-0.21;87.25
3968;BME280;9221;42.646;23.380;2023-03-18T03:30:29;94753.25;;;-0.23;87.85
3968;BME280;9221;42.646;23.380;2023-03-18T03:32:56;94804.28;;;0.08;88.11
3968;BME280;9221;42.646;23.380;2023-03-18T03:35:21;94848.72;;;0.18;88.32
3968;BME280;9221;42.646;23.380;2023-03-18T03:37:47;94849.88;;;0.12;88.09
3968;BME280;9221;42.646;23.380;2023-03-18T03:40:14;94836.50;;;0.04;87.91
3968;BME280;9221;42.646;23.380;2023-03-18T03:42:41;94817.22;;;-0.08;88.47
3968;BME280;9221;42.646;23.380;2023-03-18T03:45:07;94841.66;;;0.04;88.06
3968;BME280;9221;42.646;23.380;2023-03-18T03:47:33;94824.81;;;-0.05;88.97
3968;BME280;9221;42.646;23.380;2023-03-18T03:49:59;94779.47;;;-0.29;88.92
3968;BME280;9221;42.646;23.380;2023-03-18T03:52:25;94860.94;;;-0.02;88.34
3968;BME280;9221;42.646;23.380;2023-03-18T03:54:50;94756.94;;;-0.45;87.61
3968;BME280;9221;42.646;23.380;2023-03-18T03:57:17;94858.06;;;0.05;88.06
3968;BME280;9221;42.646;23.380;2023-03-18T03:59:42;94826.78;;;0.08;87.38
3968;BME280;9221;42.646;23.380;2023-03-18T04:02:08;94776.97;;;-0.48;87.33
3968;BME280;9221;42.646;23.380;2023-03-18T04:04:34;94770.78;;;-0.12;86.60
3968;BME280;9221;42.646;23.380;2023-03-18T04:07:00;94844.03;;;0.41;85.98
3968;BME280;9221;42.646;23.380;2023-03-18T04:09:25;94833.19;;;0.50;85.88
3968;BME280;9221;42.646;23.380;2023-03-18T04:11:51;94837.44;;;0.51;84.90
3968;BME280;9221;42.646;23.380;2023-03-18T04:14:16;94839.03;;;0.54;84.95
3968;BME280;9221;42.646;23.380;2023-03-18T04:16:42;94813.41;;;0.31;83.77
3968;BME280;9221;42.646;23.380;2023-03-18T04:19:09;94849.81;;;0.30;84.06
3968;BME280;9221;42.646;23.380;2023-03-18T04:21:34;94869.13;;;0.24;84.90
3968;BME280;9221;42.646;23.380;2023-03-18T04:24:01;94866.56;;;0.07;86.51
3968;BME280;9221;42.646;23.380;2023-03-18T04:26:28;94775.09;;;-0.62;86.88
3968;BME280;9221;42.646;23.380;2023-03-18T04:28:55;94759.13;;;-0.71;86.78
3968;BME280;9221;42.646;23.380;2023-03-18T04:31:21;94815.47;;;-0.41;87.45
3968;BME280;9221;42.646;23.380;2023-03-18T04:33:46;94819.25;;;-0.48;88.07
3968;BME280;9221;42.646;23.380;2023-03-18T04:36:12;94749.38;;;-0.83;88.58
3968;BME280;9221;42.646;23.380;2023-03-18T04:38:38;94806.31;;;-0.48;87.76
3968;BME280;9221;42.646;23.380;2023-03-18T04:41:04;94884.97;;;0.02;87.87
3968;BME280;9221;42.646;23.380;2023-03-18T04:43:30;94858.78;;;-0.27;87.76
3968;BME280;9221;42.646;23.380;2023-03-18T04:45:56;94827.00;;;-0.30;88.13
3968;BME280;9221;42.646;23.380;2023-03-18T04:48:22;94863.72;;;-0.05;88.90
3968;BME280;9221;42.646;23.380;2023-03-18T04:50:47;94832.97;;;-0.28;88.98
3968;BME280;9221;42.646;23.380;2023-03-18T04:53:13;94903.19;;;0.18;88.59
3968;BME280;9221;42.646;23.380;2023-03-18T04:55:40;94877.47;;;0.13;88.33
3968;BME280;9221;42.646;23.380;2023-03-18T04:58:05;94812.69;;;-0.20;88.40
3968;BME280;9221;42.646;23.380;2023-03-18T05:00:31;94835.13;;;-0.03;87.74
3968;BME280;9221;42.646;23.380;2023-03-18T05:02:56;94842.03;;;0.14;87.69
3968;BME280;9221;42.646;23.380;2023-03-18T05:05:21;94894.97;;;0.59;87.14
3968;BME280;9221;42.646;23.380;2023-03-18T05:07:47;94888.44;;;0.52;86.21
3968;BME280;9221;42.646;23.380;2023-03-18T05:10:12;94850.22;;;0.22;86.44
3968;BME280;9221;42.646;23.380;2023-03-18T05:12:38;94841.50;;;0.07;86.61
3968;BME280;9221;42.646;23.380;2023-03-18T05:15:05;94813.84;;;-0.10;85.72
3968;BME280;9221;42.646;23.380;2023-03-18T05:17:30;94834.13;;;-0.01;86.38
3968;BME280;9221;42.646;23.380;2023-03-18T05:19:56;94851.31;;;0.18;86.04
3968;BME280;9221;42.646;23.380;2023-03-18T05:22:22;94849.38;;;0.06;85.77
3968;BME280;9221;42.646;23.380;2023-03-18T05:24:48;94818.72;;;-0.04;85.08
3968;BME280;9221;42.646;23.380;2023-03-18T05:27:15;94882.03;;;0.42;84.44
3968;BME280;9221;42.646;23.380;2023-03-18T05:29:41;94873.53;;;0.40;84.64
3968;BME280;9221;42.646;23.380;2023-03-18T05:32:07;94872.19;;;0.64;84.20
3968;BME280;9221;42.646;23.380;2023-03-18T05:34:34;94869.16;;;0.72;83.51
3968;BME280;9221;42.646;23.380;2023-03-18T05:37:05;94914.72;;;0.78;83.24
3968;BME280;9221;42.646;23.380;2023-03-18T05:39:31;94822.13;;;0.62;82.42
3968;BME280;9221;42.646;23.380;2023-03-18T05:41:58;94903.75;;;1.05;82.86
3968;BME280;9221;42.646;23.380;2023-03-18T05:44:24;94868.97;;;1.23;81.55
3968;BME280;9221;42.646;23.380;2023-03-18T05:46:50;94826.84;;;1.18;80.28
3968;BME280;9221;42.646;23.380;2023-03-18T05:49:20;94862.72;;;1.42;79.31
3968;BME280;9221;42.646;23.380;2023-03-18T05:51:45;94878.13;;;1.45;79.91
3968;BME280;9221;42.646;23.380;2023-03-18T05:54:14;94910.09;;;1.61;79.40
3968;BME280;9221;42.646;23.380;2023-03-18T05:56:44;94870.19;;;1.62;79.73
3968;BME280;9221;42.646;23.380;2023-03-18T05:59:10;94856.47;;;1.75;79.90
3968;BME280;9221;42.646;23.380;2023-03-18T06:01:36;94903.84;;;2.25;79.62
3968;BME280;9221;42.646;23.380;2023-03-18T06:04:03;94895.38;;;2.35;79.77
3968;BME280;9221;42.646;23.380;2023-03-18T06:06:31;94844.53;;;2.15;79.18
3968;BME280;9221;42.646;23.380;2023-03-18T06:08:56;94923.09;;;2.65;79.18
3968;BME280;9221;42.646;23.380;2023-03-18T06:11:23;94852.78;;;2.51;78.50
3968;BME280;9221;42.646;23.380;2023-03-18T06:13:48;94931.03;;;2.91;77.87
3968;BME280;9221;42.646;23.380;2023-03-18T06:16:14;94911.16;;;2.90;77.68
3968;BME280;9221;42.646;23.380;2023-03-18T06:18:39;94833.53;;;2.68;77.09
3968;BME280;9221;42.646;23.380;2023-03-18T06:21:07;94905.88;;;3.19;76.60
3968;BME280;9221;42.646;23.380;2023-03-18T06:23:34;94930.41;;;3.29;76.60
3968;BME280;9221;42.646;23.380;2023-03-18T06:26:00;94842.34;;;3.07;76.45
3968;BME280;9221;42.646;23.380;2023-03-18T06:28:25;94851.34;;;3.16;75.68
3968;BME280;9221;42.646;23.380;2023-03-18T06:30:54;94901.44;;;3.61;75.58
3968;BME280;9221;42.646;23.380;2023-03-18T06:33:21;94940.78;;;3.44;75.49
3968;BME280;9221;42.646;23.380;2023-03-18T06:35:47;94892.59;;;3.77;74.80
3968;BME280;9221;42.646;23.380;2023-03-18T06:38:14;94829.66;;;3.55;74.56
3968;BME280;9221;42.646;23.380;2023-03-18T06:40:41;94875.72;;;3.95;73.96
3968;BME280;9221;42.646;23.380;2023-03-18T06:43:07;94823.53;;;3.69;73.61
3968;BME280;9221;42.646;23.380;2023-03-18T06:45:33;94733.28;;;3.28;73.68
3968;BME280;9221;42.646;23.380;2023-03-18T06:47:59;94808.41;;;3.75;73.69
3968;BME280;9221;42.646;23.380;2023-03-18T06:50:25;94815.59;;;3.18;73.46
3968;BME280;9221;42.646;23.380;2023-03-18T06:52:51;94874.16;;;4.05;74.69
3968;BME280;9221;42.646;23.380;2023-03-18T06:55:17;94809.22;;;3.88;74.62
3968;BME280;9221;42.646;23.380;2023-03-18T06:57:42;94814.66;;;4.11;74.65
3968;BME280;9221;42.646;23.380;2023-03-18T07:00:09;94863.47;;;4.60;73.80
3968;BME280;9221;42.646;23.380;2023-03-18T07:02:35;94800.13;;;4.32;72.87
3968;BME280;9221;42.646;23.380;2023-03-18T07:05:01;94864.47;;;4.83;73.45
3968;BME280;9221;42.646;23.380;2023-03-18T07:07:26;94803.91;;;4.65;72.85
3968;BME280;9221;42.646;23.380;2023-03-18T07:09:52;94877.50;;;5.33;72.14
3968;BME280;9221;42.646;23.380;2023-03-18T07:12:18;94843.00;;;5.28;71.52
3968;BME280;9221;42.646;23.380;2023-03-18T07:14:43;94761.81;;;4.94;71.69
3968;BME280;9221;42.646;23.380;2023-03-18T07:17:09;94860.53;;;5.74;71.18
3968;BME280;9221;42.646;23.380;2023-03-18T07:19:34;94802.47;;;5.69;70.24
3968;BME280;9221;42.646;23.380;2023-03-18T07:22:00;94940.91;;;6.21;69.71
3968;BME280;9221;42.646;23.380;2023-03-18T07:24:26;94866.53;;;6.35;69.78
3968;BME280;9221;42.646;23.380;2023-03-18T07:26:53;94900.94;;;6.64;68.77
3968;BME280;9221;42.646;23.380;2023-03-18T07:29:19;94917.47;;;6.31;68.07
3968;BME280;9221;42.646;23.380;2023-03-18T07:31:45;94819.00;;;6.28;68.42
3968;BME280;9221;42.646;23.380;2023-03-18T07:34:12;94837.59;;;6.48;67.94
3968;BME280;9221;42.646;23.380;2023-03-18T07:36:39;94819.25;;;6.36;67.97
3968;BME280;9221;42.646;23.380;2023-03-18T07:39:05;94914.41;;;6.71;68.94
3968;BME280;9221;42.646;23.380;2023-03-18T07:41:31;94869.97;;;7.03;69.11
3968;BME280;9221;42.646;23.380;2023-03-18T07:43:56;94946.69;;;7.28;67.61
3968;BME280;9221;42.646;23.380;2023-03-18T07:46:22;94810.44;;;7.48;67.23
3968;BME280;9221;42.646;23.380;2023-03-18T07:48:48;94821.69;;;7.92;65.36
3968;BME280;9221;42.646;23.380;2023-03-18T07:51:14;94909.97;;;8.68;64.98
3968;BME280;9221;42.646;23.380;2023-03-18T07:53:41;94876.63;;;9.09;63.28
3968;BME280;9221;42.646;23.380;2023-03-18T07:56:07;94897.75;;;9.28;61.90
3968;BME280;9221;42.646;23.380;2023-03-18T07:58:34;94847.19;;;9.25;60.76
3968;BME280;9221;42.646;23.380;2023-03-18T08:01:00;94888.50;;;9.54;60.70
3968;BME280;9221;42.646;23.380;2023-03-18T08:03:25;94825.69;;;9.20;59.93
3968;BME280;9221;42.646;23.380;2023-03-18T08:05:50;94864.84;;;9.73;59.87
3968;BME280;9221;42.646;23.380;2023-03-18T08:08:17;94862.06;;;9.85;59.66
3968;BME280;9221;42.646;23.380;2023-03-18T08:10:42;94824.06;;;9.97;59.05
3968;BME280;9221;42.646;23.380;2023-03-18T08:13:07;94841.22;;;10.40;57.65
3968;BME280;9221;42.646;23.380;2023-03-18T08:15:34;94835.66;;;10.33;56.58
3968;BME280;9221;42.646;23.380;2023-03-18T08:17:59;94819.13;;;10.41;56.35
3968;BME280;9221;42.646;23.380;2023-03-18T08:20:25;94927.84;;;10.82;56.58
3968;BME280;9221;42.646;23.380;2023-03-18T08:22:51;94886.88;;;11.16;56.42
3968;BME280;9221;42.646;23.380;2023-03-18T08:25:17;94840.09;;;11.08;55.16
3968;BME280;9221;42.646;23.380;2023-03-18T08:27:42;94882.50;;;11.34;56.12
3968;BME280;9221;42.646;23.380;2023-03-18T08:30:09;94845.16;;;11.47;55.09
3968;BME280;9221;42.646;23.380;2023-03-18T08:32:34;94880.94;;;11.60;54.15
3968;BME280;9221;42.646;23.380;2023-03-18T08:35:00;94907.66;;;11.57;54.07
3968;BME280;9221;42.646;23.380;2023-03-18T08:37:26;94875.97;;;11.57;54.50
3968;BME280;9221;42.646;23.380;2023-03-18T08:39:52;94704.38;;;10.93;53.06
3968;BME280;9221;42.646;23.380;2023-03-18T08:42:18;94825.22;;;11.35;53.80
3968;BME280;9221;42.646;23.380;2023-03-18T08:44:44;94813.94;;;11.61;52.95
3968;BME280;9221;42.646;23.380;2023-03-18T08:47:09;94906.19;;;12.44;52.43
3968;BME280;9221;42.646;23.380;2023-03-18T08:49:35;94847.81;;;12.72;50.45
3968;BME280;9221;42.646;23.380;2023-03-18T08:52:01;94831.47;;;13.11;49.78
3968;BME280;9221;42.646;23.380;2023-03-18T08:54:27;94869.66;;;13.43;49.24
3968;BME280;9221;42.646;23.380;2023-03-18T08:56:53;94827.53;;;13.24;48.23
3968;BME280;9221;42.646;23.380;2023-03-18T08:59:20;94843.50;;;12.97;49.70
3968;BME280;9221;42.646;23.380;2023-03-18T09:01:45;94903.22;;;13.77;49.09
3968;BME280;9221;42.646;23.380;2023-03-18T09:04:12;94873.78;;;14.21;48.34
3968;BME280;9221;42.646;23.380;2023-03-18T09:06:39;94813.56;;;13.56;45.90
3968;BME280;9221;42.646;23.380;2023-03-18T09:09:05;94906.78;;;14.11;47.79
3968;BME280;9221;42.646;23.380;2023-03-18T09:11:31;94822.69;;;14.36;45.99
3968;BME280;9221;42.646;23.380;2023-03-18T09:13:57;94882.16;;;14.99;43.78
3968;BME280;9221;42.646;23.380;2023-03-18T09:16:23;94822.31;;;14.72;44.18
3968;BME280;9221;42.646;23.380;2023-03-18T09:18:48;94825.53;;;15.07;42.90
3968;BME280;9221;42.646;23.380;2023-03-18T09:21:14;94891.75;;;15.56;41.97
3968;BME280;9221;42.646;23.380;2023-03-18T09:23:39;94843.06;;;15.25;41.18
3968;BME280;9221;42.646;23.380;2023-03-18T09:26:05;94830.47;;;15.81;39.83
3968;BME280;9221;42.646;23.380;2023-03-18T09:28:31;94888.38;;;16.26;39.84
3968;BME280;9221;42.646;23.380;2023-03-18T09:30:56;94909.19;;;16.45;38.79
3968;BME280;9221;42.646;23.380;2023-03-18T09:33:22;94783.84;;;14.60;37.92
3968;BME280;9221;42.646;23.380;2023-03-18T09:35:48;94905.59;;;14.87;40.09
3968;BME280;9221;42.646;23.380;2023-03-18T09:38:17;94832.63;;;15.54;40.31
3968;BME280;9221;42.646;23.380;2023-03-18T09:41:04;94862.13;;;16.22;37.51
3968;BME280;9221;42.646;23.380;2023-03-18T09:53:59;94768.06;;;15.14;37.99
3968;BME280;9221;42.646;23.380;2023-03-18T09:56:28;94857.44;;;16.24;36.38
3968;BME280;9221;42.646;23.380;2023-03-18T09:59:04;94816.72;;;16.24;36.69
3968;BME280;9221;42.646;23.380;2023-03-18T10:01:36;94863.66;;;17.08;36.17
3968;BME280;9221;42.646;23.380;2023-03-18T10:04:23;94826.31;;;16.63;34.56
3968;BME280;9221;42.646;23.380;2023-03-18T10:06:54;94877.16;;;15.52;34.88
3968;BME280;9221;42.646;23.380;2023-03-18T10:09:33;94830.50;;;14.04;37.67
3968;BME280;9221;42.646;23.380;2023-03-18T10:12:06;94856.50;;;14.01;37.86
3968;BME280;9221;42.646;23.380;2023-03-18T10:14:48;94844.72;;;13.19;39.66
3968;BME280;9221;42.646;23.380;2023-03-18T10:20:00;94819.34;;;12.66;38.26
3968;BME280;9221;42.646;23.380;2023-03-18T10:22:55;94881.38;;;13.92;37.67
3968;BME280;9221;42.646;23.380;2023-03-18T10:25:34;94872.09;;;14.53;35.15
3968;BME280;9221;42.646;23.380;2023-03-18T10:31:05;94874.44;;;14.65;34.40
3968;BME280;9221;42.646;23.380;2023-03-18T10:33:44;94836.97;;;14.27;34.97
3968;BME280;9221;42.646;23.380;2023-03-18T10:39:01;94859.69;;;15.18;33.79
3968;BME280;9221;42.646;23.380;2023-03-18T10:41:33;94812.41;;;14.66;33.65
3968;BME280;9221;42.646;23.380;2023-03-18T10:47:31;94880.56;;;16.01;32.09
3968;BME280;9221;42.646;23.380;2023-03-18T10:52:46;94852.38;;;17.06;31.12
3968;BME280;9221;42.646;23.380;2023-03-18T10:55:18;94810.19;;;17.09;29.97
3968;BME280;9221;42.646;23.380;2023-03-18T10:57:45;94720.47;;;16.50;29.60
3968;BME280;9221;42.646;23.380;2023-03-18T11:00:29;94814.16;;;16.31;28.48
3968;BME280;9221;42.646;23.380;2023-03-18T11:02:57;94848.06;;;17.20;29.84
3968;BME280;9221;42.646;23.380;2023-03-18T11:05:30;94801.47;;;17.01;29.22
3968;BME280;9221;42.646;23.380;2023-03-18T11:10:27;94917.31;;;16.90;28.32
3968;BME280;9221;42.646;23.380;2023-03-18T11:12:57;94803.22;;;15.79;29.80
3968;BME280;9221;42.646;23.380;2023-03-18T11:15:37;94790.09;;;14.92;30.40
3968;BME280;9221;42.646;23.380;2023-03-18T11:18:13;94865.13;;;14.52;31.71
3968;BME280;9221;42.646;23.380;2023-03-18T11:20:42;94781.25;;;13.44;31.93
3968;BME280;9221;42.646;23.380;2023-03-18T11:23:18;94869.31;;;13.03;33.46
3968;BME280;9221;42.646;23.380;2023-03-18T11:26:00;94847.50;;;13.44;33.80
3968;BME280;9221;42.646;23.380;2023-03-18T11:28:27;94832.34;;;14.12;33.48
3968;BME280;9221;42.646;23.380;2023-03-18T11:30:55;94822.41;;;15.35;31.66
3968;BME280;9221;42.646;23.380;2023-03-18T11:33:30;94806.91;;;15.15;31.53
3968;BME280;9221;42.646;23.380;2023-03-18T11:36:05;94775.31;;;14.89;31.07
3968;BME280;9221;42.646;23.380;2023-03-18T11:38:33;94794.66;;;14.42;31.18
3968;BME280;9221;42.646;23.380;2023-03-18T11:41:14;94819.88;;;13.80;32.74
3968;BME280;9221;42.646;23.380;2023-03-18T11:49:31;94837.34;;;12.97;36.21
3968;BME280;9221;42.646;23.380;2023-03-18T12:05:51;94856.56;;;12.99;35.52
3968;BME280;9221;42.646;23.380;2023-03-18T12:14:01;94836.16;;;12.57;37.15
3968;BME280;9221;42.646;23.380;2023-03-18T12:16:38;94852.47;;;13.47;36.56
3968;BME280;9221;42.646;23.380;2023-03-18T12:27:54;94850.91;;;12.59;36.02
3968;BME280;9221;42.646;23.380;2023-03-18T12:30:31;94859.16;;;12.38;35.90
3968;BME280;9221;42.646;23.380;2023-03-18T12:41:50;94820.31;;;13.42;35.62
3968;BME280;9221;42.646;23.380;2023-03-18T12:47:10;94825.50;;;12.75;36.12
3968;BME280;9221;42.646;23.380;2023-03-18T12:50:02;94769.63;;;12.17;37.02
3968;BME280;9221;42.646;23.380;2023-03-18T12:52:44;94770.50;;;12.26;36.68
3968;BME280;9221;42.646;23.380;2023-03-18T12:55:20;94762.41;;;12.01;37.32
3968;BME280;9221;42.646;23.380;2023-03-18T12:57:51;94834.72;;;12.36;37.30
3968;BME280;9221;42.646;23.380;2023-03-18T13:00:23;94824.84;;;13.15;36.75
3968;BME280;9221;42.646;23.380;2023-03-18T13:05:54;94819.44;;;12.82;34.13
3968;BME280;9221;42.646;23.380;2023-03-18T13:11:31;94819.00;;;13.03;34.77
3968;BME280;9221;42.646;23.380;2023-03-18T13:16:47;94795.69;;;11.04;36.30
3968;BME280;9221;42.646;23.380;2023-03-18T13:19:14;94820.78;;;10.90;36.43
3968;BME280;9221;42.646;23.380;2023-03-18T13:21:55;94810.56;;;10.39;36.36
3968;BME280;9221;42.646;23.380;2023-03-18T13:25:02;94825.94;;;10.81;37.32
3968;BME280;9221;42.646;23.380;2023-03-18T13:44:24;94769.38;;;10.19;37.47
3968;BME280;9221;42.646;23.380;2023-03-18T13:46:58;94812.63;;;10.26;37.66
3968;BME280;9221;42.646;23.380;2023-03-18T13:49:28;94762.81;;;9.75;38.06
3968;BME280;9221;42.646;23.380;2023-03-18T13:51:57;94811.34;;;9.92;37.16
3968;BME280;9221;42.646;23.380;2023-03-18T13:54:29;94835.72;;;9.85;36.88
3968;BME280;9221;42.646;23.380;2023-03-18T13:57:15;94796.91;;;9.87;36.93
3968;BME280;9221;42.646;23.380;2023-03-18T13:59:43;94835.44;;;9.78;37.21
3968;BME280;9221;42.646;23.380;2023-03-18T14:04:54;94829.16;;;10.75;36.84
3968;BME280;9221;42.646;23.380;2023-03-18T14:07:22;94728.53;;;10.42;36.29
3968;BME280;9221;42.646;23.380;2023-03-18T14:17:57;94767.88;;;10.54;36.00
3968;BME280;9221;42.646;23.380;2023-03-18T14:20:27;94807.75;;;10.78;35.78
3968;BME280;9221;42.646;23.380;2023-03-18T14:23:35;94836.75;;;10.50;35.81
3968;BME280;9221;42.646;23.380;2023-03-18T14:26:23;94806.78;;;10.52;36.39
3968;BME280;9221;42.646;23.380;2023-03-18T14:29:15;94820.00;;;10.70;35.61
3968;BME280;9221;42.646;23.380;2023-03-18T14:31:55;94741.50;;;9.59;36.21
3968;BME280;9221;42.646;23.380;2023-03-18T14:34:26;94747.84;;;9.66;36.70
3968;BME280;9221;42.646;23.380;2023-03-18T14:41:49;94795.50;;;9.82;37.15
3968;BME280;9221;42.646;23.380;2023-03-18T14:44:21;94803.28;;;9.94;37.05
3968;BME280;9221;42.646;23.380;2023-03-18T14:46:50;94801.56;;;10.12;36.39
3968;BME280;9221;42.646;23.380;2023-03-18T14:49:36;94836.66;;;10.23;36.89
3968;BME280;9221;42.646;23.380;2023-03-18T14:52:22;94803.66;;;10.19;36.41
3968;BME280;9221;42.646;23.380;2023-03-18T14:54:51;94842.50;;;10.74;36.93
3968;BME280;9221;42.646;23.380;2023-03-18T14:57:21;94798.00;;;10.89;36.30
3968;BME280;9221;42.646;23.380;2023-03-18T14:59:47;94800.50;;;11.08;36.37
3968;BME280;9221;42.646;23.380;2023-03-18T15:02:23;94751.09;;;10.82;36.01
3968;BME280;9221;42.646;23.380;2023-03-18T15:04:52;94746.72;;;10.73;35.25
3968;BME280;9221;42.646;23.380;2023-03-18T15:07:20;94805.78;;;11.08;35.08
3968;BME280;9221;42.646;23.380;2023-03-18T15:09:50;94755.28;;;10.75;35.29
3968;BME280;9221;42.646;23.380;2023-03-18T15:12:17;94781.97;;;10.72;35.69
3968;BME280;9221;42.646;23.380;2023-03-18T15:14:44;94798.28;;;10.86;35.88
3968;BME280;9221;42.646;23.380;2023-03-18T15:17:15;94813.25;;;10.95;36.31
3968;BME280;9221;42.646;23.380;2023-03-18T15:19:42;94820.56;;;11.01;35.47
3968;BME280;9221;42.646;23.380;2023-03-18T15:22:09;94751.78;;;10.57;35.64
3968;BME280;9221;42.646;23.380;2023-03-18T15:24:40;94777.56;;;10.63;36.10
3968;BME280;9221;42.646;23.380;2023-03-18T15:27:15;94780.41;;;10.52;36.68